createdAt,value
2023-04-21T00:01:58.884Z,18.15
2023-04-21T00:04:25.696Z,19.02
2023-04-21T00:06:56.993Z,14.57
2023-04-21T00:09:23.541Z,14.75
2023-04-21T00:11:54.587Z,12.55
2023-04-21T00:14:21.364Z,11.57
2023-04-21T00:16:52.386Z,16.65
2023-04-21T00:19:23.882Z,14.35
2023-04-21T00:21:58.511Z,13.05
2023-04-21T00:24:25.988Z,14.57
2023-04-21T00:26:54.669Z,16.02
2023-04-21T00:29:21.309Z,17.05
2023-04-21T00:31:48.285Z,14.95
2023-04-21T00:34:14.966Z,17.80
2023-04-21T00:36:41.460Z,15.63
2023-04-21T00:39:07.920Z,17.75
2023-04-21T00:41:36.099Z,16.63
2023-04-21T00:44:10.259Z,17.88
2023-04-21T00:46:38.545Z,14.52
2023-04-21T00:49:06.958Z,15.73
2023-04-21T00:51:35.044Z,13.75
2023-04-21T00:54:06.820Z,15.77
2023-04-21T00:56:34.892Z,16.88
2023-04-21T00:59:04.274Z,18.80
2023-04-21T01:01:34.346Z,15.98
2023-04-21T01:04:01.530Z,16.98
2023-04-21T01:06:29.627Z,17.38
2023-04-21T01:08:56.340Z,15.35
2023-04-21T01:11:22.702Z,15.85
2023-04-21T01:13:53.296Z,16.35
2023-04-21T01:16:21.598Z,15.60
2023-04-21T01:18:48.102Z,15.18
2023-04-21T01:21:19.078Z,13.98
2023-04-21T01:23:46.109Z,14.88
2023-04-21T01:26:17.213Z,14.90
2023-04-21T01:28:44.116Z,16.40
2023-04-21T01:31:10.640Z,18.90
2023-04-21T01:33:42.143Z,16.05
2023-04-21T01:36:09.719Z,21.15
2023-04-21T01:38:42.556Z,14.70
2023-04-21T01:41:12.550Z,18.42
2023-04-21T01:43:39.227Z,19.60
2023-04-21T01:46:06.573Z,17.30
2023-04-21T01:48:33.105Z,14.52
2023-04-21T01:50:59.559Z,20.85
2023-04-21T01:53:26.891Z,18.35
2023-04-21T01:55:53.330Z,16.92
2023-04-21T01:58:22.863Z,15.25
2023-04-21T02:00:49.434Z,17.45
2023-04-21T02:03:16.216Z,16.83
2023-04-21T02:05:42.770Z,15.93
2023-04-21T02:08:09.258Z,16.23
2023-04-21T02:10:35.806Z,16.35
2023-04-21T02:13:02.289Z,16.88
2023-04-21T02:15:31.435Z,20.65
2023-04-21T02:17:58.051Z,18.25
2023-04-21T02:20:24.553Z,16.50
2023-04-21T02:22:50.928Z,16.65
2023-04-21T02:25:17.367Z,12.40
2023-04-21T02:27:43.732Z,19.58
2023-04-21T02:30:11.145Z,17.45
2023-04-21T02:32:38.133Z,19.08
2023-04-21T02:35:08.232Z,13.88
2023-04-21T02:37:34.786Z,14.50
2023-04-21T02:40:03.709Z,13.45
2023-04-21T02:42:30.290Z,15.25
2023-04-21T02:44:59.315Z,16.08
2023-04-21T02:47:26.097Z,16.95
2023-04-21T02:49:52.653Z,19.67
2023-04-21T02:52:19.337Z,15.85
2023-04-21T02:54:45.807Z,13.07
2023-04-21T02:57:12.302Z,15.13
2023-04-21T02:59:38.694Z,14.05
2023-04-21T03:02:05.169Z,15.70
2023-04-21T03:04:32.400Z,13.55
2023-04-21T03:07:01.685Z,18.73
2023-04-21T03:09:30.487Z,16.73
2023-04-21T03:11:59.330Z,18.98
2023-04-21T03:14:33.687Z,16.92
2023-04-21T03:17:00.182Z,13.95
2023-04-21T03:19:26.728Z,22.70
2023-04-21T03:21:53.169Z,20.08
2023-04-21T03:24:19.655Z,18.15
2023-04-21T03:26:48.304Z,23.30
2023-04-21T03:29:18.070Z,22.92
2023-04-21T03:31:44.963Z,21.25
2023-04-21T03:34:13.911Z,21.05
2023-04-21T03:36:40.578Z,23.30
2023-04-21T03:39:19.090Z,28.45
2023-04-21T03:41:46.396Z,40.13
2023-04-21T03:44:12.759Z,29.98
2023-04-21T03:46:39.112Z,23.67
2023-04-21T03:49:05.621Z,21.13
2023-04-21T03:51:32.424Z,30.60
2023-04-21T03:54:01.154Z,16.58
2023-04-21T03:56:27.634Z,19.58
2023-04-21T03:58:56.575Z,12.50
2023-04-21T04:01:23.010Z,11.73
2023-04-21T04:03:49.647Z,19.83
2023-04-21T04:06:16.310Z,15.40
2023-04-21T04:08:42.650Z,31.50
2023-04-21T04:11:11.541Z,26.15
2023-04-21T04:13:38.015Z,15.18
2023-04-21T04:16:07.258Z,22.65
2023-04-21T04:18:33.850Z,28.55
2023-04-21T04:21:08.289Z,18.40
2023-04-21T04:23:35.482Z,12.57
2023-04-21T04:26:04.529Z,26.33
2023-04-21T04:28:33.698Z,31.48
2023-04-21T04:31:00.761Z,33.70
2023-04-21T04:33:27.403Z,15.02
2023-04-21T04:35:54.604Z,15.02
2023-04-21T04:38:23.056Z,16.63
2023-04-21T04:40:57.447Z,9.90
2023-04-21T04:43:25.433Z,16.35
2023-04-21T04:45:54.479Z,37.00
2023-04-21T04:48:20.910Z,69.00
2023-04-21T04:50:47.562Z,24.73
2023-04-21T04:53:14.034Z,33.90
2023-04-21T04:55:40.619Z,28.50
2023-04-21T04:58:07.118Z,13.23
2023-04-21T05:00:33.503Z,54.53
2023-04-21T05:03:00.016Z,35.03
2023-04-21T05:05:26.585Z,21.42
2023-04-21T05:07:55.523Z,26.15
2023-04-21T05:10:21.941Z,21.90
2023-04-21T05:12:50.601Z,25.90
2023-04-21T05:15:18.391Z,32.92
2023-04-21T05:17:44.787Z,28.10
2023-04-21T05:20:11.734Z,21.58
2023-04-21T05:22:38.514Z,24.20
2023-04-21T05:25:10.312Z,28.40
2023-04-21T05:27:36.776Z,29.58
2023-04-21T05:30:03.280Z,25.48
2023-04-21T05:32:29.751Z,20.67
2023-04-21T05:34:56.215Z,20.45
2023-04-21T05:37:22.594Z,21.25
2023-04-21T05:39:48.957Z,21.50
2023-04-21T05:42:15.708Z,25.40
2023-04-21T05:44:42.078Z,21.80
2023-04-21T05:47:08.517Z,24.02
2023-04-21T05:49:35.105Z,28.08
2023-04-21T05:52:01.497Z,22.13
2023-04-21T05:54:27.912Z,19.27
2023-04-21T05:56:54.291Z,21.02
2023-04-21T05:59:20.774Z,21.88
2023-04-21T06:01:50.113Z,18.65
2023-04-21T06:04:22.345Z,20.45
2023-04-21T06:06:49.050Z,22.52
2023-04-21T06:09:17.858Z,22.77
2023-04-21T06:11:44.364Z,22.42
2023-04-21T06:14:10.844Z,25.08
2023-04-21T06:16:37.255Z,22.80
2023-04-21T06:19:03.807Z,23.30
2023-04-21T06:21:30.804Z,22.38
2023-04-21T06:23:57.313Z,27.63
2023-04-21T06:26:23.836Z,29.95
2023-04-21T06:28:50.381Z,20.38
2023-04-21T06:31:17.700Z,22.08
2023-04-21T06:33:44.270Z,22.17
2023-04-21T06:36:10.741Z,24.20
2023-04-21T06:38:37.333Z,25.17
2023-04-21T06:41:04.647Z,22.55
2023-04-21T06:43:31.236Z,18.10
2023-04-21T06:46:02.649Z,21.15
2023-04-21T06:48:30.348Z,23.53
2023-04-21T06:50:56.925Z,19.65
2023-04-21T06:53:23.530Z,27.15
2023-04-21T06:55:53.391Z,22.27
2023-04-21T06:58:22.087Z,26.45
2023-04-21T07:00:48.589Z,27.25
2023-04-21T07:03:17.979Z,20.02
2023-04-21T07:05:44.599Z,28.35
2023-04-21T07:08:11.015Z,23.27
2023-04-21T07:10:37.477Z,21.30
2023-04-21T07:13:04.027Z,24.70
2023-04-21T07:15:32.643Z,24.85
2023-04-21T07:17:59.231Z,26.00
2023-04-21T07:20:25.927Z,28.45
2023-04-21T07:22:54.977Z,26.55
2023-04-21T07:25:21.563Z,31.27
2023-04-21T07:27:48.017Z,23.00
2023-04-21T07:30:14.770Z,25.95
2023-04-21T07:32:41.283Z,34.63
2023-04-21T07:35:08.365Z,28.33
2023-04-21T07:37:35.012Z,26.73
2023-04-21T07:40:01.610Z,29.25
2023-04-21T07:42:28.202Z,28.23
2023-04-21T07:44:56.165Z,33.92
2023-04-21T07:47:22.596Z,32.42
2023-04-21T07:49:49.130Z,33.17
2023-04-21T07:52:15.585Z,25.40
2023-04-21T07:54:44.363Z,31.90
2023-04-21T07:57:11.300Z,27.38
2023-04-21T07:59:37.993Z,30.30
2023-04-21T08:02:04.807Z,32.50
2023-04-21T08:04:31.530Z,28.55
2023-04-21T08:07:00.836Z,33.92
2023-04-21T08:09:28.046Z,31.95
2023-04-21T08:11:55.313Z,36.28
2023-04-21T08:14:22.106Z,28.70
2023-04-21T08:16:51.349Z,27.42
2023-04-21T08:19:18.066Z,25.20
2023-04-21T08:21:44.622Z,26.75
2023-04-21T08:24:11.177Z,26.95
2023-04-21T08:26:37.698Z,27.88
2023-04-21T08:29:07.029Z,24.83
2023-04-21T08:31:33.896Z,29.25
2023-04-21T08:34:03.057Z,21.75
2023-04-21T08:36:30.770Z,23.83
2023-04-21T08:39:00.250Z,27.75
2023-04-21T08:41:27.094Z,21.23
2023-04-21T08:43:55.918Z,18.70
2023-04-21T08:46:23.153Z,21.08
2023-04-21T08:48:49.855Z,23.23
2023-04-21T08:51:22.984Z,24.27
2023-04-21T08:53:49.726Z,24.15
2023-04-21T08:56:18.327Z,23.48
2023-04-21T08:58:47.154Z,19.73
2023-04-21T09:01:13.864Z,25.00
2023-04-21T09:03:40.675Z,20.17
2023-04-21T09:06:09.755Z,22.40
2023-04-21T09:08:43.687Z,24.27
2023-04-21T09:11:14.385Z,25.48
2023-04-21T09:13:43.145Z,22.83
2023-04-21T09:16:23.681Z,24.67
2023-04-21T09:18:51.340Z,26.08
2023-04-21T09:21:19.667Z,27.13
2023-04-21T09:23:53.493Z,19.08
2023-04-21T09:26:23.075Z,21.13
2023-04-21T09:28:51.115Z,22.00
2023-04-21T09:31:21.881Z,18.10
2023-04-21T09:39:08.934Z,13.18
2023-04-21T09:41:41.418Z,20.63
2023-04-21T09:44:10.176Z,15.63
2023-04-21T09:46:37.391Z,18.33
2023-04-21T09:49:04.876Z,14.43
2023-04-21T09:52:05.271Z,15.65
2023-04-21T09:54:29.672Z,14.00
2023-04-21T09:56:59.807Z,17.27
2023-04-21T09:59:32.970Z,14.77
2023-04-21T10:02:00.616Z,12.90
2023-04-21T10:04:31.262Z,16.98
2023-04-21T10:07:00.967Z,16.63
2023-04-21T10:09:50.793Z,14.95
2023-04-21T10:12:18.447Z,14.98
2023-04-21T10:14:44.921Z,13.65
2023-04-21T10:17:11.512Z,16.48
2023-04-21T10:19:47.638Z,14.25
2023-04-21T10:22:14.094Z,14.10
2023-04-21T10:24:42.181Z,12.32
2023-04-21T10:27:12.980Z,14.73
2023-04-21T10:29:54.724Z,13.63
2023-04-21T10:32:41.363Z,12.05
2023-04-21T10:35:13.548Z,12.40
2023-04-21T10:37:42.460Z,15.68
2023-04-21T10:40:44.166Z,10.70
2023-04-21T10:43:42.550Z,13.35
2023-04-21T10:46:40.305Z,9.23
2023-04-21T10:49:08.062Z,10.65
2023-04-21T10:52:03.180Z,13.13
2023-04-21T10:54:36.968Z,9.20
2023-04-21T10:57:07.738Z,12.27
2023-04-21T10:59:35.067Z,10.00
2023-04-21T11:02:08.940Z,12.68
2023-04-21T11:04:35.960Z,9.57
2023-04-21T11:07:13.325Z,8.35
2023-04-21T11:09:41.626Z,9.90
2023-04-21T11:12:14.538Z,10.00
2023-04-21T11:14:47.789Z,14.10
2023-04-21T11:17:16.404Z,9.85
2023-04-21T11:19:52.555Z,11.60
2023-04-21T11:22:24.250Z,11.18
2023-04-21T11:24:54.385Z,10.30
2023-04-21T11:27:22.320Z,8.85
2023-04-21T11:29:52.307Z,12.48
2023-04-21T11:32:19.206Z,10.88
2023-04-21T11:34:45.831Z,9.40
2023-04-21T11:37:20.895Z,11.68
2023-04-21T11:39:47.346Z,9.32
2023-04-21T11:42:21.164Z,8.98
2023-04-21T11:44:47.566Z,8.55
2023-04-21T11:47:22.874Z,9.68
2023-04-21T11:50:01.470Z,10.40
2023-04-21T11:52:30.944Z,10.13
2023-04-21T11:55:01.786Z,9.65
2023-04-21T11:57:32.560Z,6.68
2023-04-21T12:00:00.916Z,8.75
2023-04-21T12:02:32.818Z,9.15
2023-04-21T12:05:05.214Z,7.20
2023-04-21T12:07:58.305Z,9.50
2023-04-21T12:10:24.694Z,13.50
2023-04-21T12:12:51.764Z,10.02
2023-04-21T12:15:21.367Z,7.80
2023-04-21T12:17:52.447Z,10.48
2023-04-21T12:20:22.256Z,14.80
2023-04-21T12:22:53.954Z,10.63
2023-04-21T12:25:20.378Z,8.75
2023-04-21T12:27:50.935Z,9.45
2023-04-21T12:30:18.088Z,11.88
2023-04-21T12:32:44.648Z,7.60
2023-04-21T12:35:14.257Z,11.82
2023-04-21T12:37:41.005Z,10.55
2023-04-21T12:40:08.152Z,10.88
2023-04-21T12:42:37.240Z,12.88
2023-04-21T12:45:07.225Z,9.77
2023-04-21T12:47:34.603Z,12.15
2023-04-21T12:50:01.291Z,10.88
2023-04-21T12:52:30.312Z,13.43
2023-04-21T12:54:56.659Z,10.40
2023-04-21T12:57:23.121Z,9.40
2023-04-21T12:59:49.570Z,12.77
2023-04-21T13:02:18.787Z,11.40
2023-04-21T13:04:45.348Z,11.02
2023-04-21T13:07:12.091Z,13.27
2023-04-21T13:09:38.725Z,9.43
2023-04-21T13:12:07.894Z,11.05
2023-04-21T13:14:37.343Z,13.43
2023-04-21T13:17:06.346Z,16.60
2023-04-21T13:19:33.238Z,11.18
2023-04-21T13:22:00.116Z,12.10
2023-04-21T13:24:26.798Z,21.20
2023-04-21T13:26:56.046Z,12.98
2023-04-21T13:29:29.289Z,11.35
2023-04-21T13:31:56.891Z,11.48
2023-04-21T13:34:23.284Z,12.50
2023-04-21T13:36:50.604Z,10.70
2023-04-21T13:39:17.201Z,10.88
2023-04-21T13:41:43.680Z,13.95
2023-04-21T13:44:10.110Z,9.60
2023-04-21T13:46:37.969Z,8.13
2023-04-21T13:49:04.528Z,10.57
2023-04-21T13:51:32.195Z,7.50
2023-04-21T13:53:58.691Z,10.52
2023-04-21T13:56:25.499Z,12.18
2023-04-21T13:58:52.031Z,7.95
2023-04-21T14:01:20.670Z,13.05
2023-04-21T14:03:50.747Z,8.90
2023-04-21T14:06:17.493Z,11.38
2023-04-21T14:08:46.117Z,9.32
2023-04-21T14:11:14.980Z,8.82
2023-04-21T14:13:48.055Z,9.55
2023-04-21T14:16:26.659Z,14.30
2023-04-21T14:18:53.580Z,10.13
2023-04-21T14:21:19.990Z,9.80
2023-04-21T14:23:46.598Z,14.60
2023-04-21T14:26:13.310Z,11.48
2023-04-21T14:28:42.498Z,11.02
2023-04-21T14:31:09.231Z,10.63
2023-04-21T14:33:35.896Z,11.85
2023-04-21T14:36:02.371Z,13.15
2023-04-21T14:38:30.594Z,11.90
2023-04-21T14:40:57.198Z,10.05
2023-04-21T14:43:23.736Z,10.27
2023-04-21T14:45:50.336Z,8.88
2023-04-21T14:48:17.278Z,10.88
2023-04-21T14:50:43.952Z,11.32
2023-04-21T14:53:10.952Z,9.45
2023-04-21T14:55:44.533Z,12.10
2023-04-21T14:58:10.945Z,12.98
2023-04-21T15:00:38.889Z,12.00
2023-04-21T15:03:07.897Z,13.60
2023-04-21T15:05:36.851Z,9.32
2023-04-21T15:08:03.532Z,10.77
2023-04-21T15:10:32.197Z,9.20
2023-04-21T15:12:58.921Z,9.02
2023-04-21T15:15:25.612Z,10.57
2023-04-21T15:17:54.609Z,8.25
2023-04-21T15:20:32.550Z,9.82
2023-04-21T15:23:07.742Z,13.60
2023-04-21T15:25:36.223Z,11.80
2023-04-21T15:28:05.056Z,12.20
2023-04-21T15:30:31.508Z,9.73
2023-04-21T15:32:57.969Z,12.15
2023-04-21T15:35:24.538Z,8.95
2023-04-21T15:37:53.331Z,7.75
2023-04-21T15:40:19.800Z,8.43
2023-04-21T15:42:46.330Z,10.10
2023-04-21T15:45:12.816Z,16.23
2023-04-21T15:47:39.511Z,9.00
2023-04-21T15:50:06.658Z,11.13
2023-04-21T15:52:36.136Z,11.88
2023-04-21T15:55:02.721Z,13.05
2023-04-21T15:57:29.736Z,9.20
2023-04-21T15:59:58.508Z,9.02
2023-04-21T16:02:25.121Z,8.48
2023-04-21T16:04:52.121Z,12.70
2023-04-21T16:07:18.799Z,10.52
2023-04-21T16:09:45.231Z,8.20
2023-04-21T16:12:11.675Z,10.45
2023-04-21T16:14:55.259Z,12.88
2023-04-21T16:17:26.513Z,12.27
2023-04-21T16:19:53.829Z,10.80
2023-04-21T16:22:20.398Z,12.00
2023-04-21T16:24:47.117Z,12.05
2023-04-21T16:27:13.663Z,11.40
2023-04-21T16:29:40.103Z,8.50
2023-04-21T16:32:06.984Z,2.97
2023-04-21T16:34:33.705Z,2.30
2023-04-21T16:37:00.589Z,5.80
2023-04-21T16:39:27.651Z,7.82
2023-04-21T16:41:54.164Z,1.80
2023-04-21T16:44:22.887Z,4.13
2023-04-21T16:46:49.436Z,3.10
2023-04-21T16:49:16.077Z,1.00
2023-04-21T16:51:44.889Z,1.55
2023-04-21T16:54:16.420Z,2.13
2023-04-21T16:56:45.791Z,1.42
2023-04-21T16:59:12.156Z,7.53
2023-04-21T17:01:38.612Z,0.70
2023-04-21T17:04:05.168Z,1.65
2023-04-21T17:06:34.239Z,1.02
2023-04-21T17:09:00.619Z,5.45
2023-04-21T17:11:31.281Z,2.33
2023-04-21T17:13:57.837Z,3.50
2023-04-21T17:16:26.927Z,1.55
2023-04-21T17:18:54.806Z,1.70
2023-04-21T17:21:21.163Z,2.55
2023-04-21T17:23:47.670Z,0.93
2023-04-21T17:26:15.126Z,0.70
2023-04-21T17:28:43.896Z,1.13
2023-04-21T17:31:15.783Z,1.70
2023-04-21T17:34:04.164Z,4.28
2023-04-21T17:36:30.953Z,1.98
2023-04-21T17:38:58.266Z,1.33
2023-04-21T17:41:27.649Z,3.00
2023-04-21T17:43:57.204Z,2.13
2023-04-21T17:46:25.351Z,0.70
2023-04-21T17:48:54.531Z,1.35
2023-04-21T17:51:21.173Z,2.50
2023-04-21T17:53:47.831Z,1.83
2023-04-21T17:56:14.495Z,2.05
2023-04-21T17:59:00.062Z,2.65
2023-04-21T18:01:26.898Z,1.70
2023-04-21T18:03:57.033Z,2.95
2023-04-21T18:06:27.401Z,2.35
2023-04-21T18:08:56.276Z,2.67
2023-04-21T18:11:23.066Z,12.27
2023-04-21T18:13:49.619Z,5.43
2023-04-21T18:16:16.399Z,48.28
2023-04-21T18:18:42.798Z,158.98
2023-04-21T18:21:13.872Z,76.95
2023-04-21T18:23:40.363Z,75.80
2023-04-21T18:26:07.701Z,123.13
2023-04-21T18:28:36.766Z,18.90
2023-04-21T18:31:03.529Z,17.00
2023-04-21T18:33:34.595Z,5.05
2023-04-21T18:36:01.331Z,2.75
2023-04-21T18:38:27.725Z,1.60
2023-04-21T18:40:56.390Z,9.10
2023-04-21T18:43:25.447Z,12.65
2023-04-21T18:45:53.980Z,16.45
2023-04-21T18:48:22.811Z,3.72
2023-04-21T18:50:49.242Z,6.18
2023-04-21T18:53:15.713Z,10.93
2023-04-21T18:55:42.055Z,15.63
2023-04-21T18:58:14.786Z,112.78
2023-04-21T19:00:41.242Z,64.60
2023-04-21T19:03:11.085Z,20.38
2023-04-21T19:05:40.667Z,15.73
2023-04-21T19:08:09.569Z,5.50
2023-04-21T19:10:37.684Z,8.48
2023-04-21T19:13:04.441Z,3.90
2023-04-21T19:15:31.001Z,7.43
2023-04-21T19:17:57.607Z,5.95
2023-04-21T19:20:24.027Z,4.38
2023-04-21T19:22:50.862Z,4.20
2023-04-21T19:25:17.570Z,3.17
2023-04-21T19:27:44.597Z,2.15
2023-04-21T19:30:16.118Z,2.75
2023-04-21T19:32:42.551Z,2.63
2023-04-21T19:35:09.371Z,2.95
2023-04-21T19:37:36.257Z,4.35
2023-04-21T19:40:03.355Z,3.58
2023-04-21T19:42:30.432Z,2.42
2023-04-21T19:44:56.943Z,1.40
2023-04-21T19:47:23.301Z,5.55
2023-04-21T19:49:49.818Z,4.43
2023-04-21T19:52:18.496Z,4.07
2023-04-21T19:54:44.911Z,3.25
2023-04-21T19:57:11.345Z,2.85
2023-04-21T19:59:38.225Z,3.45
2023-04-21T20:02:05.124Z,5.90
2023-04-21T20:04:32.120Z,5.22
2023-04-21T20:06:58.831Z,2.65
2023-04-21T20:09:25.308Z,5.38
2023-04-21T20:11:51.703Z,4.70
2023-04-21T20:14:18.858Z,6.55
2023-04-21T20:16:46.447Z,4.28
2023-04-21T20:19:17.229Z,3.00
2023-04-21T20:21:44.167Z,6.68
2023-04-21T20:24:10.520Z,3.95
2023-04-21T20:26:37.147Z,5.82
2023-04-21T20:29:04.041Z,3.38
2023-04-21T20:31:30.471Z,4.80
2023-04-21T20:33:56.900Z,4.63
2023-04-21T20:36:23.400Z,2.20
2023-04-21T20:38:50.569Z,7.13
2023-04-21T20:41:24.173Z,4.65
2023-04-21T20:43:54.055Z,4.50
2023-04-21T20:46:20.443Z,2.70
2023-04-21T20:48:47.005Z,2.80
2023-04-21T20:51:13.491Z,4.15
2023-04-21T20:53:42.665Z,3.15
2023-04-21T20:56:11.666Z,7.38
2023-04-21T20:58:43.218Z,4.47
2023-04-21T21:01:09.751Z,3.60
2023-04-21T21:03:38.953Z,9.60
2023-04-21T21:06:05.788Z,2.38
2023-04-21T21:08:32.191Z,2.42
2023-04-21T21:10:58.612Z,2.15
2023-04-21T21:13:25.086Z,1.67
2023-04-21T21:15:52.144Z,4.32
2023-04-21T21:18:21.258Z,2.70
2023-04-21T21:20:49.933Z,3.40
2023-04-21T21:23:16.271Z,1.80
2023-04-21T21:25:42.709Z,3.42
2023-04-21T21:28:11.564Z,4.97
2023-04-21T21:30:37.897Z,2.28
2023-04-21T21:33:04.345Z,2.97
2023-04-21T21:35:30.911Z,1.77
2023-04-21T21:37:57.355Z,1.20
2023-04-21T21:40:23.875Z,2.47
2023-04-21T21:42:51.313Z,1.88
2023-04-21T21:45:17.777Z,1.45
2023-04-21T21:47:45.843Z,3.97
2023-04-21T21:50:12.582Z,1.80
2023-04-21T21:52:39.101Z,1.52
2023-04-21T21:55:06.377Z,1.73
2023-04-21T21:57:32.917Z,0.80
2023-04-21T22:00:02.339Z,0.98
2023-04-21T22:02:29.126Z,2.13
2023-04-21T22:04:56.347Z,1.33
2023-04-21T22:07:25.090Z,1.90
2023-04-21T22:09:51.807Z,4.63
2023-04-21T22:12:23.160Z,2.95
2023-04-21T22:14:49.618Z,2.27
2023-04-21T22:17:15.993Z,1.98
2023-04-21T22:19:42.432Z,1.27
2023-04-21T22:22:08.918Z,1.77
2023-04-21T22:24:35.381Z,3.58
2023-04-21T22:27:04.505Z,0.90
2023-04-21T22:29:31.115Z,1.13
2023-04-21T22:31:58.057Z,1.10
2023-04-21T22:34:24.512Z,1.48
2023-04-21T22:36:52.011Z,3.35
2023-04-21T22:39:18.444Z,2.83
2023-04-21T22:41:45.646Z,0.80
2023-04-21T22:44:15.208Z,1.63
2023-04-21T22:46:41.783Z,3.47
2023-04-21T22:49:09.116Z,1.08
2023-04-21T22:51:36.357Z,0.93
2023-04-21T22:54:03.230Z,1.17
2023-04-21T22:56:31.956Z,1.10
2023-04-21T22:58:58.502Z,1.30
2023-04-21T23:01:25.277Z,2.17
2023-04-21T23:03:51.874Z,4.68
2023-04-21T23:06:18.321Z,1.23
2023-04-21T23:08:44.966Z,1.08
2023-04-21T23:11:13.793Z,4.68
2023-04-21T23:13:40.532Z,1.73
2023-04-21T23:16:07.248Z,5.95
2023-04-21T23:18:36.206Z,1.33
2023-04-21T23:21:02.575Z,2.22
2023-04-21T23:23:29.054Z,2.85
2023-04-21T23:25:55.485Z,1.40
2023-04-21T23:28:21.965Z,2.55
2023-04-21T23:30:48.506Z,3.33
2023-04-21T23:33:15.018Z,2.35
2023-04-21T23:35:41.461Z,0.80
2023-04-21T23:38:07.935Z,2.28
2023-04-21T23:40:34.305Z,4.38
2023-04-21T23:43:05.673Z,1.55
2023-04-21T23:45:32.288Z,1.60
2023-04-21T23:48:01.216Z,0.60
2023-04-21T23:50:27.660Z,0.95
2023-04-21T23:52:54.021Z,1.98
2023-04-21T23:55:20.593Z,0.50
2023-04-21T23:57:47.035Z,0.80
